Time;durP1;ratioP1;P1;durP2;ratioP2;P2;SDS_P1;SDS_P2;PMS_P1;PMS_P2;Temp;Humidity;BMP_temperature;BMP_pressure;BME280_temperature;BME280_humidity;BME280_pressure;Samples;Min_cycle;Max_cycle;Signal;HPM_P1;HPM_P2
2022/12/14 00:01:12;;;;;;;7.97;3.93;;;;;;;4.43;62.21;99032.50;6041285;23;20160;-87
2022/12/14 00:03:38;;;;;;;7.63;3.80;;;;;;;4.48;62.42;99041.00;6041241;23;20142;-87
2022/12/14 00:06:22;;;;;;;6.47;3.57;;;;;;;4.41;62.09;99042.06;6040691;23;20154;-87
2022/12/14 00:08:49;;;;;;;8.73;4.10;;;;;;;4.42;61.84;99044.63;6040836;23;20166;-86
2022/12/14 00:11:15;;;;;;;7.93;3.07;;;;;;;4.45;62.27;99046.28;6040747;23;20154;-87
2022/12/14 00:13:42;;;;;;;4.57;2.77;;;;;;;4.48;61.44;99052.22;6039381;23;20558;-87
2022/12/14 00:16:10;;;;;;;8.30;4.27;;;;;;;4.52;61.58;99048.66;6040438;23;20165;-87
2022/12/14 00:18:37;;;;;;;7.13;2.97;;;;;;;4.53;61.53;99060.75;6040453;23;20167;-87
2022/12/14 00:21:04;;;;;;;8.70;3.90;;;;;;;4.55;60.92;99060.69;6040507;23;20154;-87
2022/12/14 00:23:30;;;;;;;11.07;3.70;;;;;;;4.49;61.24;99055.66;6016283;23;20165;-87
2022/12/14 00:25:55;;;;;;;7.13;3.40;;;;;;;4.47;61.05;99044.50;6015657;23;20508;-87
2022/12/14 00:28:21;;;;;;;8.30;3.47;;;;;;;4.49;61.05;99053.06;6040511;23;20153;-87
2022/12/14 00:30:46;;;;;;;8.83;2.90;;;;;;;4.47;60.84;99045.34;6040411;23;20213;-87
2022/12/14 00:33:12;;;;;;;10.57;3.27;;;;;;;4.42;61.18;99042.03;6040461;23;20161;-87
2022/12/14 00:35:37;;;;;;;9.07;3.60;;;;;;;4.49;61.21;99033.16;6040715;23;20161;-87
2022/12/14 00:38:03;;;;;;;6.77;2.97;;;;;;;4.51;60.96;99031.38;6040371;23;20563;-87
2022/12/14 00:40:28;;;;;;;8.17;3.73;;;;;;;4.52;61.24;99038.28;6040580;23;20245;-87
2022/12/14 00:42:53;;;;;;;9.00;4.13;;;;;;;4.52;61.14;99034.81;6040326;23;20154;-87
2022/12/14 00:45:19;;;;;;;8.70;4.07;;;;;;;4.54;61.40;99048.59;6040203;23;20161;-87
2022/12/14 00:47:44;;;;;;;10.40;4.53;;;;;;;4.51;61.50;99056.50;6040239;23;20186;-87
2022/12/14 00:50:10;;;;;;;8.20;4.20;;;;;;;4.55;61.41;99055.50;6040293;23;20209;-87
2022/12/14 00:52:35;;;;;;;7.93;3.47;;;;;;;4.62;61.12;99051.81;6015376;23;20275;-87
2022/12/14 00:55:01;;;;;;;8.10;4.03;;;;;;;4.62;61.05;99044.03;6040535;23;20555;-87
2022/12/14 00:57:28;;;;;;;5.50;3.40;;;;;;;4.66;61.16;99036.13;6038976;23;20161;-87
2022/12/14 00:59:54;;;;;;;6.73;3.60;;;;;;;4.56;60.94;99049.44;6040143;23;20185;-87
2022/12/14 01:02:19;;;;;;;5.53;3.43;;;;;;;4.59;60.66;99049.31;6014791;23;20452;-87
2022/12/14 01:04:45;;;;;;;9.10;4.43;;;;;;;4.63;60.70;99056.97;6039921;23;20165;-87
2022/12/14 01:07:10;;;;;;;12.07;4.87;;;;;;;4.59;61.03;99057.09;6040410;23;20185;-87
2022/12/14 01:09:36;;;;;;;9.90;3.77;;;;;;;4.58;61.74;99058.00;6015324;23;20154;-87
2022/12/14 01:12:01;;;;;;;8.33;4.20;;;;;;;4.60;61.47;99059.66;6039228;23;20216;-87
2022/12/14 01:14:27;;;;;;;11.60;4.50;;;;;;;4.66;61.40;99063.81;6040052;23;20567;-87
2022/12/14 01:16:52;;;;;;;9.67;3.90;;;;;;;4.66;61.29;99051.69;6040014;23;20151;-87
2022/12/14 01:19:18;;;;;;;5.97;3.07;;;;;;;4.53;61.21;99055.56;6040273;23;20249;-87
2022/12/14 01:21:43;;;;;;;10.67;4.87;;;;;;;4.45;61.37;99056.66;6040011;23;20213;-87
2022/12/14 01:24:09;;;;;;;8.30;4.50;;;;;;;4.53;61.85;99052.09;6039964;23;20160;-87
2022/12/14 01:26:38;;;;;;;10.17;4.17;;;;;;;4.58;61.87;99052.81;6039994;23;20571;-87
2022/12/14 01:29:05;;;;;;;10.73;4.40;;;;;;;4.61;62.28;99042.34;6015083;23;20490;-87
2022/12/14 01:31:34;;;;;;;10.40;5.13;;;;;;;4.70;62.12;99035.13;6040319;23;20692;-87
2022/12/14 01:34:00;;;;;;;10.37;4.40;;;;;;;4.73;62.54;99050.59;6040127;23;20154;-87
2022/12/14 01:36:29;;;;;;;7.20;3.63;;;;;;;4.75;62.03;99055.75;6039923;23;20487;-87
2022/12/14 01:38:57;;;;;;;10.20;4.77;;;;;;;4.69;62.20;99055.94;6040039;23;20176;-87
2022/12/14 01:41:27;;;;;;;12.40;5.43;;;;;;;4.76;62.07;99058.31;6039744;23;20153;-87
2022/12/14 01:43:55;;;;;;;13.90;4.77;;;;;;;4.82;62.29;99057.28;6039399;23;20178;-87
2022/12/14 01:46:39;;;;;;;7.23;4.17;;;;;;;4.84;62.34;99058.06;6040057;23;20211;-87
2022/12/14 01:49:27;;;;;;;16.17;5.10;;;;;;;4.82;62.10;99054.69;6040361;23;20166;-87
2022/12/14 01:52:13;;;;;;;9.87;4.83;;;;;;;4.85;62.30;99063.19;6040063;23;20138;-87
2022/12/14 01:54:53;;;;;;;8.70;4.37;;;;;;;4.93;62.01;99066.41;6040007;23;20150;-87
2022/12/14 01:57:24;;;;;;;9.13;4.70;;;;;;;4.94;61.82;99056.88;6039642;23;20151;-86
2022/12/14 01:59:51;;;;;;;12.10;4.47;;;;;;;4.99;61.77;99055.00;6039921;23;20173;-86
2022/12/14 02:02:19;;;;;;;7.87;4.30;;;;;;;4.98;61.59;99053.28;6039584;23;20153;-87
2022/12/14 02:04:49;;;;;;;9.30;5.53;;;;;;;4.94;61.35;99054.28;6039931;23;20179;-86
2022/12/14 02:07:16;;;;;;;8.93;3.73;;;;;;;5.00;61.55;99051.50;6040031;23;20144;-86
2022/12/14 02:09:45;;;;;;;10.13;4.17;;;;;;;5.04;61.05;99052.25;6039543;23;20219;-87
2022/12/14 02:12:20;;;;;;;10.00;4.93;;;;;;;5.05;61.28;99053.94;6039396;23;20156;-86
2022/12/14 02:14:47;;;;;;;10.13;4.43;;;;;;;5.02;61.41;99049.69;6039284;23;20229;-87
2022/12/14 02:17:14;;;;;;;5.90;4.30;;;;;;;5.02;61.35;99054.03;6039812;23;20167;-87
2022/12/14 02:19:45;;;;;;;11.53;4.77;;;;;;;4.98;61.51;99053.28;6014469;23;20723;-87
2022/12/14 02:22:17;;;;;;;8.23;5.30;;;;;;;5.03;61.74;99053.16;6039412;23;20135;-87
2022/12/14 02:25:29;;;;;;;10.40;5.43;;;;;;;5.08;61.49;99062.50;6039399;23;20154;-87
2022/12/14 02:28:28;;;;;;;12.47;4.80;;;;;;;5.12;61.79;99060.63;6038125;23;20156;-87
2022/12/14 02:31:12;;;;;;;10.80;5.27;;;;;;;5.16;61.85;99065.72;6038262;23;20230;-87
2022/12/14 02:33:37;;;;;;;6.40;4.30;;;;;;;5.17;62.10;99053.53;6038204;23;20629;-86
2022/12/14 02:36:02;;;;;;;8.93;4.30;;;;;;;5.16;62.02;99055.31;6039248;23;20163;-87
2022/12/14 02:38:57;;;;;;;8.83;3.97;;;;;;;5.15;62.15;99057.94;6039949;23;20236;-87
2022/12/14 02:41:37;;;;;;;12.13;5.53;;;;;;;5.19;61.92;99056.97;5999736;23;20170;-87
2022/12/14 02:44:05;;;;;;;10.97;4.43;;;;;;;5.20;62.11;99059.50;6039072;23;20166;-87
2022/12/14 02:46:49;;;;;;;10.73;4.80;;;;;;;5.15;61.84;99053.59;6039212;23;20181;-86
2022/12/14 02:49:38;;;;;;;8.87;3.63;;;;;;;5.11;62.07;99053.75;6039894;23;20156;-87
2022/12/14 02:52:12;;;;;;;6.97;4.23;;;;;;;5.15;61.82;99050.16;6027568;23;20197;-87
2022/12/14 02:54:53;;;;;;;7.90;4.37;;;;;;;5.16;61.94;99063.13;6039886;23;20207;-87
2022/12/14 02:57:26;;;;;;;11.07;3.73;;;;;;;5.14;62.15;99059.69;6039865;23;20641;-87
2022/12/14 02:59:56;;;;;;;8.13;3.87;;;;;;;5.13;62.07;99068.41;6039007;23;20165;-87
2022/12/14 03:02:22;;;;;;;7.73;3.70;;;;;;;5.12;62.35;99063.25;6039008;23;20590;-87
2022/12/14 03:04:49;;;;;;;10.93;4.03;;;;;;;5.13;62.17;99063.22;6039126;23;20169;-87
2022/12/14 03:07:32;;;;;;;8.63;4.13;;;;;;;5.07;62.33;99068.59;6039086;23;20158;-87
2022/12/14 03:10:09;;;;;;;7.63;3.60;;;;;;;5.13;62.51;99067.53;6039475;23;20533;-87
2022/12/14 03:12:39;;;;;;;9.40;4.03;;;;;;;5.14;61.52;99069.22;6039476;23;20140;-87
2022/12/14 03:15:08;;;;;;;9.83;4.63;;;;;;;5.18;61.56;99066.50;6039073;23;20460;-87
2022/12/14 03:17:34;;;;;;;11.97;4.57;;;;;;;5.14;61.09;99064.88;6039728;23;20154;-87
2022/12/14 03:20:08;;;;;;;7.37;3.93;;;;;;;5.14;61.11;99069.22;6039015;23;20597;-87
2022/12/14 03:22:39;;;;;;;9.37;4.50;;;;;;;4.97;61.41;99070.63;6039486;23;20144;-87
2022/12/14 03:25:41;;;;;;;7.50;3.57;;;;;;;5.00;61.35;99071.44;6014337;23;20239;-87
2022/12/14 03:28:16;;;;;;;10.73;4.43;;;;;;;5.06;60.67;99071.25;6037744;23;20239;-87
2022/12/14 03:30:47;;;;;;;10.20;4.43;;;;;;;5.02;60.79;99073.06;6041240;23;20225;-87
2022/12/14 03:33:17;;;;;;;9.50;4.40;;;;;;;5.03;60.80;99072.19;6040907;23;20152;-87
2022/12/14 03:35:53;;;;;;;9.40;4.33;;;;;;;5.13;60.58;99078.78;6040911;23;20175;-88
2022/12/14 03:38:28;;;;;;;10.23;4.40;;;;;;;5.08;60.19;99075.50;6041567;23;20142;-88
2022/12/14 03:41:00;;;;;;;8.03;4.37;;;;;;;5.04;60.04;99073.03;6015880;23;20173;-87
2022/12/14 03:43:40;;;;;;;7.13;3.90;;;;;;;5.07;59.83;99078.97;6015857;23;20214;-87
2022/12/14 03:46:30;;;;;;;8.83;4.30;;;;;;;4.86;60.33;99080.50;6039675;23;20165;-87
2022/12/14 03:49:08;;;;;;;12.17;4.20;;;;;;;4.88;60.03;99078.69;6041207;23;20138;-87
2022/12/14 03:52:08;;;;;;;10.43;5.60;;;;;;;4.98;59.17;99085.31;6041389;23;20161;-87
2022/12/14 03:55:21;;;;;;;10.23;4.47;;;;;;;4.99;59.16;99073.16;6041291;23;20160;-87
2022/12/14 03:57:54;;;;;;;8.57;4.93;;;;;;;4.97;58.92;99065.44;6041416;23;20638;-87
2022/12/14 04:00:22;;;;;;;11.47;3.93;;;;;;;5.05;58.74;99062.59;6040587;23;20245;-87
2022/12/14 04:02:53;;;;;;;13.80;4.77;;;;;;;5.01;58.43;99066.16;6040723;23;20178;-87
2022/12/14 04:05:43;;;;;;;8.50;4.43;;;;;;;5.02;58.33;99054.91;6041373;23;20152;-87
2022/12/14 04:08:29;;;;;;;9.57;4.53;;;;;;;4.97;57.91;99049.84;6041112;23;20214;-87
2022/12/14 04:19:30;;;;;;;8.77;4.10;;;;;;;4.93;58.32;99014.47;6040810;23;20237;-87
2022/12/14 04:22:01;;;;;;;11.97;4.73;;;;;;;5.00;58.59;99014.28;6040897;23;20521;-87
2022/12/14 04:27:41;;;;;;;11.73;4.00;;;;;;;5.08;58.77;99013.16;6040706;23;20210;-88
2022/12/14 04:30:09;;;;;;;7.50;3.27;;;;;;;5.08;58.82;99007.94;6040708;23;20152;-87
2022/12/14 04:32:39;;;;;;;9.07;4.23;;;;;;;5.13;59.07;99006.06;6040725;23;20571;-87
2022/12/14 04:35:08;;;;;;;8.87;4.63;;;;;;;5.20;58.10;99007.53;6040514;23;20261;-87
2022/12/14 04:37:37;;;;;;;6.40;3.30;;;;;;;5.18;58.42;99014.53;6040955;23;20511;-87
2022/12/14 04:40:10;;;;;;;9.13;4.40;;;;;;;5.18;58.80;99011.09;6040266;23;20174;-87
2022/12/14 04:42:59;;;;;;;6.73;3.83;;;;;;;5.25;58.64;99016.03;6040448;23;20138;-88
2022/12/14 04:45:32;;;;;;;7.87;3.77;;;;;;;5.24;58.14;99019.50;6039283;23;20266;-87
2022/12/14 04:48:16;;;;;;;8.50;5.30;;;;;;;5.18;58.81;99024.94;6040403;23;20499;-87
2022/12/14 04:50:48;;;;;;;11.30;4.43;;;;;;;5.22;58.89;99030.84;6039072;23;20162;-87
2022/12/14 04:53:22;;;;;;;12.67;5.33;;;;;;;5.21;58.82;99024.84;6040825;23;20175;-87
2022/12/14 04:56:00;;;;;;;9.77;5.47;;;;;;;5.21;58.88;99024.84;6015482;23;20159;-87
2022/12/14 04:58:28;;;;;;;8.90;4.13;;;;;;;5.24;58.51;99029.09;6038887;23;20154;-87
2022/12/14 05:00:59;;;;;;;10.13;4.73;;;;;;;5.27;58.64;99032.41;6040043;23;20176;-87
2022/12/14 05:03:45;;;;;;;10.93;4.30;;;;;;;5.30;58.34;99040.13;6040501;23;20175;-87
2022/12/14 05:06:25;;;;;;;10.33;4.17;;;;;;;5.33;58.80;99040.00;6040030;23;20287;-87
2022/12/14 05:09:14;;;;;;;11.43;4.17;;;;;;;5.25;58.96;99035.97;6040134;23;20228;-87
2022/12/14 05:12:05;;;;;;;7.90;4.63;;;;;;;5.27;58.42;99034.16;6015201;23;20152;-87
2022/12/14 05:14:46;;;;;;;12.73;4.93;;;;;;;5.30;58.78;99034.06;6040222;23;20169;-87
2022/12/14 05:17:13;;;;;;;8.27;4.57;;;;;;;5.32;58.19;99040.91;6040647;23;20201;-88
2022/12/14 05:19:49;;;;;;;12.47;4.80;;;;;;;5.34;58.66;99046.06;6040262;23;20425;-87
2022/12/14 05:22:16;;;;;;;11.73;4.60;;;;;;;5.38;58.64;99050.25;6039957;23;20154;-88
2022/12/14 05:24:41;;;;;;;18.37;5.87;;;;;;;5.45;58.57;99042.19;6040022;23;20158;-87
2022/12/14 05:27:07;;;;;;;14.00;5.30;;;;;;;5.50;58.04;99047.25;6039960;23;20152;-87
2022/12/14 05:29:32;;;;;;;10.57;5.13;;;;;;;5.47;58.57;99052.56;6039895;23;20588;-88
2022/12/14 05:31:59;;;;;;;11.70;4.40;;;;;;;5.57;57.63;99054.81;6040224;23;20253;-88
2022/12/14 05:34:25;;;;;;;14.07;5.30;;;;;;;5.57;57.44;99054.81;6039989;23;20168;-88
2022/12/14 05:36:50;;;;;;;12.97;4.80;;;;;;;5.53;57.14;99045.38;6039895;23;20156;-88
2022/12/14 05:39:16;;;;;;;8.70;4.13;;;;;;;5.49;57.77;99051.59;6038588;23;20179;-88
2022/12/14 05:41:42;;;;;;;9.80;4.80;;;;;;;5.41;55.88;99056.22;6040021;23;20154;-87
2022/12/14 05:44:08;;;;;;;7.83;3.73;;;;;;;5.25;56.96;99065.41;6039725;23;20193;-87
2022/12/14 05:46:33;;;;;;;10.33;3.80;;;;;;;5.21;56.58;99062.97;6040158;23;20152;-88
2022/12/14 05:48:58;;;;;;;13.77;4.63;;;;;;;5.12;57.29;99071.03;6038295;23;20158;-87
2022/12/14 05:51:24;;;;;;;8.50;4.40;;;;;;;5.16;57.20;99078.69;6039707;23;20606;-87
2022/12/14 05:53:49;;;;;;;10.17;4.30;;;;;;;5.16;57.52;99089.09;6039720;23;20600;-87
2022/12/14 05:56:15;;;;;;;11.53;5.70;;;;;;;5.27;56.76;99086.13;6039773;23;20204;-87
2022/12/14 05:58:49;;;;;;;9.50;4.03;;;;;;;5.22;56.56;99083.69;6039626;23;20153;-87
2022/12/14 06:01:15;;;;;;;11.67;4.53;;;;;;;5.26;56.61;99090.50;6040251;23;20555;-87
2022/12/14 06:03:40;;;;;;;8.07;4.13;;;;;;;5.20;56.90;99084.63;6039651;23;20153;-87
2022/12/14 06:06:10;;;;;;;9.13;3.83;;;;;;;5.24;56.53;99092.28;6038461;23;20504;-87
2022/12/14 06:08:41;;;;;;;10.43;3.80;;;;;;;5.21;57.22;99088.94;6040181;23;20232;-87
2022/12/14 06:11:09;;;;;;;10.13;4.30;;;;;;;5.18;56.92;99081.25;6039487;23;20182;-87
2022/12/14 06:13:36;;;;;;;5.83;2.80;;;;;;;5.17;57.47;99089.91;6038398;23;20170;-87
2022/12/14 06:16:15;;;;;;;13.03;6.00;;;;;;;5.14;57.87;99084.81;6014759;23;20162;-87
2022/12/14 06:18:50;;;;;;;10.03;4.37;;;;;;;5.17;57.82;99080.38;6014495;23;20213;-88
2022/12/14 06:21:18;;;;;;;11.40;4.50;;;;;;;5.14;58.42;99077.03;6039877;23;20150;-87
2022/12/14 06:23:43;;;;;;;9.43;4.60;;;;;;;5.12;57.77;99086.63;6039088;23;20150;-87
2022/12/14 06:26:09;;;;;;;8.40;4.40;;;;;;;5.17;58.05;99088.19;6014573;23;20481;-87
2022/12/14 06:28:35;;;;;;;8.50;4.00;;;;;;;5.06;58.45;99095.44;6039381;23;20609;-87
2022/12/14 06:31:01;;;;;;;6.73;4.30;;;;;;;4.94;58.91;99090.66;6015170;23;20165;-87
2022/12/14 06:33:28;;;;;;;10.80;4.37;;;;;;;4.94;59.89;99088.91;6039278;23;20154;-87
2022/12/14 06:35:54;;;;;;;10.87;4.27;;;;;;;5.07;59.78;99091.97;6039469;23;20150;-88
2022/12/14 06:38:20;;;;;;;20.33;6.33;;;;;;;5.03;59.12;99094.72;6039691;23;20215;-87
2022/12/14 06:40:46;;;;;;;14.00;4.30;;;;;;;5.06;59.49;99107.63;6014417;23;20182;-87
2022/12/14 06:43:11;;;;;;;9.23;4.50;;;;;;;5.11;58.82;99111.75;6039404;23;20626;-87
2022/12/14 06:45:37;;;;;;;16.03;5.63;;;;;;;5.14;58.75;99105.59;6039190;23;20182;-87
2022/12/14 06:48:03;;;;;;;10.73;3.97;;;;;;;5.11;58.94;99106.53;6039296;23;20153;-87
2022/12/14 06:50:29;;;;;;;10.63;4.67;;;;;;;5.11;58.15;99106.53;6039231;23;20165;-87
2022/12/14 06:52:54;;;;;;;12.73;5.27;;;;;;;4.98;56.80;99120.81;6038823;23;20214;-87
2022/12/14 06:55:21;;;;;;;8.90;3.60;;;;;;;5.03;57.37;99118.94;6039222;23;20655;-87
2022/12/14 06:57:49;;;;;;;9.37;3.60;;;;;;;5.02;57.14;99112.03;6038881;23;20238;-86
2022/12/14 07:00:14;;;;;;;11.57;4.50;;;;;;;5.13;56.29;99120.38;6038532;23;20185;-86
2022/12/14 07:02:40;;;;;;;13.43;4.73;;;;;;;5.01;56.27;99114.66;6039120;23;20161;-86
2022/12/14 07:05:06;;;;;;;15.27;4.63;;;;;;;5.15;56.49;99113.34;6039145;23;20150;-87
2022/12/14 07:07:32;;;;;;;4.87;3.30;;;;;;;5.21;56.47;99115.78;6039195;23;20156;-87
2022/12/14 07:09:58;;;;;;;7.87;4.07;;;;;;;5.41;55.35;99122.94;6039086;23;20576;-87
2022/12/14 07:12:23;;;;;;;7.63;3.77;;;;;;;5.45;55.93;99122.78;6039128;23;20161;-86
2022/12/14 07:14:49;;;;;;;12.43;4.83;;;;;;;5.42;55.03;99130.66;6039103;23;20150;-87
2022/12/14 07:17:14;;;;;;;7.03;3.60;;;;;;;5.46;55.32;99121.88;6039116;23;20243;-86
2022/12/14 07:19:42;;;;;;;10.73;4.60;;;;;;;5.54;55.62;99119.88;6039563;23;20178;-86
2022/12/14 07:22:07;;;;;;;12.40;4.53;;;;;;;5.70;55.87;99121.97;6038889;23;20150;-87
2022/12/14 07:24:33;;;;;;;7.60;3.30;;;;;;;5.78;55.84;99128.63;6039350;23;20155;-87
2022/12/14 07:26:59;;;;;;;9.57;4.30;;;;;;;5.77;54.81;99133.88;6038896;23;20154;-88
2022/12/14 07:29:24;;;;;;;7.77;3.60;;;;;;;5.82;55.23;99131.97;6039087;23;20146;-87
2022/12/14 07:31:50;;;;;;;7.87;3.40;;;;;;;5.90;55.82;99124.78;6037932;23;20219;-87
2022/12/14 07:34:16;;;;;;;7.50;3.27;;;;;;;6.08;55.64;99119.81;6039048;23;20550;-88
2022/12/14 07:36:42;;;;;;;7.37;3.80;;;;;;;6.28;55.73;99121.72;6039148;23;20229;-87
2022/12/14 07:39:14;;;;;;;8.73;4.30;;;;;;;6.08;53.93;99122.41;6038978;23;20174;-87
2022/12/14 07:41:40;;;;;;;7.93;3.63;;;;;;;6.22;54.55;99121.94;6039292;23;20152;-87
2022/12/14 07:44:07;;;;;;;9.97;4.23;;;;;;;6.35;55.11;99131.00;6038925;23;20201;-87
2022/12/14 07:46:32;;;;;;;9.17;4.60;;;;;;;6.48;54.02;99124.44;6039271;23;20327;-87
2022/12/14 07:48:59;;;;;;;12.40;4.13;;;;;;;6.59;54.02;99117.09;6037778;23;20203;-87
2022/12/14 07:51:32;;;;;;;16.30;5.83;;;;;;;6.59;53.98;99116.25;6038971;23;20176;-87
2022/12/14 07:53:58;;;;;;;17.67;5.83;;;;;;;6.68;52.85;99129.78;6038724;23;20551;-87
2022/12/14 07:56:26;;;;;;;11.90;4.57;;;;;;;6.77;52.76;99137.25;6038765;23;20178;-87
2022/12/14 07:58:54;;;;;;;10.47;4.17;;;;;;;6.74;53.66;99146.94;6038819;23;20154;-87
2022/12/14 08:01:23;;;;;;;11.00;4.03;;;;;;;6.75;53.83;99144.28;6039174;23;20223;-87
2022/12/14 08:03:51;;;;;;;10.23;4.63;;;;;;;6.87;54.94;99142.09;6039120;23;20154;-87
2022/12/14 08:06:19;;;;;;;9.13;4.37;;;;;;;7.00;53.43;99153.75;6038847;23;20150;-87
2022/12/14 08:08:45;;;;;;;12.20;5.27;;;;;;;7.07;53.40;99152.66;6037924;23;20481;-87
2022/12/14 08:11:11;;;;;;;16.50;5.67;;;;;;;6.89;52.02;99168.97;6039262;23;20146;-87
2022/12/14 08:13:41;;;;;;;9.47;3.53;;;;;;;7.00;50.50;99166.78;6040655;23;20245;-87
2022/12/14 08:16:13;;;;;;;13.23;4.60;;;;;;;7.08;51.89;99167.34;6040940;23;20157;-87
2022/12/14 08:18:39;;;;;;;11.03;4.40;;;;;;;7.23;51.18;99169.41;6040640;23;20169;-87
2022/12/14 08:21:07;;;;;;;14.07;5.73;;;;;;;7.29;50.35;99158.72;6040466;23;20452;-87
2022/12/14 08:23:33;;;;;;;8.87;3.93;;;;;;;7.37;51.62;99159.25;6040504;23;20149;-87
2022/12/14 08:25:59;;;;;;;11.10;4.83;;;;;;;7.41;52.36;99160.88;6040506;23;20176;-87
2022/12/14 08:28:27;;;;;;;7.57;3.80;;;;;;;7.54;51.61;99171.66;6015607;23;20157;-87
2022/12/14 08:30:53;;;;;;;9.10;4.43;;;;;;;7.68;52.28;99164.97;6040516;23;20575;-87
2022/12/14 08:33:19;;;;;;;7.67;3.80;;;;;;;7.94;52.49;99158.66;6040706;23;20150;-88
2022/12/14 08:35:46;;;;;;;8.37;4.30;;;;;;;8.07;49.62;99160.72;6040443;23;20162;-88
2022/12/14 08:38:11;;;;;;;9.63;4.70;;;;;;;8.13;48.81;99156.13;6015552;23;20153;-88
2022/12/14 08:40:38;;;;;;;11.63;4.10;;;;;;;8.12;49.48;99154.47;6040370;23;20200;-88
2022/12/14 08:43:05;;;;;;;7.53;4.07;;;;;;;8.22;49.54;99145.31;6041002;23;20487;-88
2022/12/14 08:45:31;;;;;;;7.20;3.40;;;;;;;7.78;47.45;99139.38;6039313;23;20568;-87
2022/12/14 08:47:58;;;;;;;9.80;4.07;;;;;;;7.31;48.18;99139.50;6040326;23;20150;-88
2022/12/14 08:50:24;;;;;;;9.27;4.50;;;;;;;7.28;50.23;99128.34;6015470;23;20217;-88
2022/12/14 08:52:49;;;;;;;9.90;3.67;;;;;;;7.80;50.53;99120.13;6040149;23;20153;-88
2022/12/14 08:55:15;;;;;;;13.93;5.87;;;;;;;7.90;49.35;99118.81;6040613;23;20154;-88
2022/12/14 08:57:41;;;;;;;19.00;5.70;;;;;;;7.91;48.71;99111.84;6040583;23;20238;-87
2022/12/14 09:00:10;;;;;;;11.43;4.30;;;;;;;8.15;50.04;99110.78;6040040;23;20602;-88
2022/12/14 09:02:36;;;;;;;9.67;5.17;;;;;;;8.25;48.87;99108.63;6015243;23;20578;-88
2022/12/14 09:05:02;;;;;;;9.50;3.70;;;;;;;8.32;48.74;99100.50;6040179;23;20154;-88
2022/12/14 09:07:28;;;;;;;13.20;3.57;;;;;;;7.94;48.07;99104.72;6015340;23;20241;-88
2022/12/14 09:09:54;;;;;;;9.60;4.63;;;;;;;7.92;48.42;99103.94;6040633;23;20156;-88
2022/12/14 09:12:20;;;;;;;17.03;4.27;;;;;;;8.05;48.19;99099.03;6040430;23;20167;-88
2022/12/14 09:14:48;;;;;;;12.17;3.87;;;;;;;8.07;47.60;99101.59;6038976;23;20191;-88
2022/12/14 09:17:17;;;;;;;10.83;4.47;;;;;;;8.23;47.65;99094.81;6040065;23;20239;-88
2022/12/14 09:19:42;;;;;;;7.50;3.23;;;;;;;8.22;47.07;99095.72;6040209;23;20274;-88
2022/12/14 09:22:08;;;;;;;6.03;3.50;;;;;;;8.34;48.38;99097.81;6039851;23;20179;-88
2022/12/14 09:24:34;;;;;;;7.80;3.20;;;;;;;8.42;48.15;99091.34;6014937;23;20164;-88
2022/12/14 09:27:01;;;;;;;8.43;3.30;;;;;;;8.45;48.35;99091.19;6040346;23;20165;-88
2022/12/14 09:29:27;;;;;;;7.27;3.87;;;;;;;8.43;46.10;99095.66;6040372;23;20212;-88
2022/12/14 09:31:53;;;;;;;5.47;3.30;;;;;;;8.47;46.51;99088.50;6039936;23;20150;-88
2022/12/14 09:34:19;;;;;;;7.27;3.67;;;;;;;8.47;46.67;99089.38;6039911;23;20177;-88
2022/12/14 09:36:45;;;;;;;6.70;3.23;;;;;;;8.40;47.25;99081.88;6040287;23;20150;-88
2022/12/14 09:39:13;;;;;;;6.60;3.10;;;;;;;8.48;47.68;99080.63;6038590;23;20181;-88
2022/12/14 09:42:03;;;;;;;9.53;3.73;;;;;;;8.71;48.39;99074.34;6040450;23;20154;-88
2022/12/14 09:44:51;;;;;;;7.43;3.40;;;;;;;8.24;48.43;99068.63;6039822;23;20674;-87
2022/12/14 09:47:36;;;;;;;8.13;3.47;;;;;;;8.02;48.76;99071.31;6015104;23;20159;-87
2022/12/14 09:50:14;;;;;;;6.37;2.80;;;;;;;8.48;48.91;99048.44;6040041;23;20138;-88
2022/12/14 09:52:47;;;;;;;10.63;3.57;;;;;;;8.62;48.74;99027.75;6039704;23;20207;-88
2022/12/14 09:55:31;;;;;;;7.87;3.33;;;;;;;8.52;47.43;99035.16;6014572;23;20309;-88
2022/12/14 09:58:27;;;;;;;9.90;4.63;;;;;;;8.89;48.70;99026.44;6040355;23;20158;-88
2022/12/14 10:01:20;;;;;;;10.57;4.97;;;;;;;9.08;47.70;99013.34;6030974;23;20193;-88
2022/12/14 10:04:08;;;;;;;7.57;3.27;;;;;;;8.64;46.46;99018.06;6040368;23;20145;-87
2022/12/14 10:07:00;;;;;;;4.80;2.53;;;;;;;8.71;47.31;99016.84;6040335;23;20142;-88
2022/12/14 10:09:40;;;;;;;8.97;3.87;;;;;;;8.88;45.39;99016.91;6039280;23;20160;-87
2022/12/14 10:12:24;;;;;;;5.23;2.57;;;;;;;9.28;45.76;99021.91;6014579;23;20334;-88
2022/12/14 10:14:55;;;;;;;6.93;2.60;;;;;;;9.52;45.86;99029.44;6039650;23;20155;-88
2022/12/14 10:17:34;;;;;;;6.77;2.97;;;;;;;9.54;45.26;99027.63;6039985;23;20138;-88
2022/12/14 10:20:11;;;;;;;6.63;3.20;;;;;;;9.60;45.75;99025.53;6038106;23;20185;-88
2022/12/14 10:22:50;;;;;;;9.20;3.63;;;;;;;9.68;45.50;99023.38;6039084;23;20153;-89
2022/12/14 10:25:19;;;;;;;8.73;2.97;;;;;;;9.84;45.07;99020.81;6039810;23;20141;-88
2022/12/14 10:27:52;;;;;;;6.50;2.90;;;;;;;9.78;44.15;99019.38;6039277;23;20161;-88
2022/12/14 10:30:20;;;;;;;9.40;3.63;;;;;;;9.80;44.02;99019.31;6038278;23;20237;-88
2022/12/14 10:32:52;;;;;;;7.97;3.37;;;;;;;9.79;44.40;99012.38;6039749;23;20150;-88
2022/12/14 10:35:25;;;;;;;6.43;3.17;;;;;;;9.85;44.75;99002.41;6039610;23;20144;-88
2022/12/14 10:38:05;;;;;;;4.90;2.50;;;;;;;9.52;45.02;99008.53;6014783;23;20150;-88
2022/12/14 10:40:32;;;;;;;5.37;2.90;;;;;;;9.67;44.81;98995.50;6040000;23;20174;-86
2022/12/14 10:43:24;;;;;;;6.73;3.10;;;;;;;9.57;44.90;98996.03;6039910;23;20161;-88
2022/12/14 10:45:58;;;;;;;5.43;2.77;;;;;;;9.85;46.44;98996.34;6014191;23;20578;-88
2022/12/14 10:48:41;;;;;;;8.90;3.57;;;;;;;10.18;45.75;98997.22;6039335;23;20567;-88
2022/12/14 10:51:18;;;;;;;8.03;3.53;;;;;;;10.05;45.34;98990.91;6038143;23;20157;-88
2022/12/14 10:53:50;;;;;;;8.63;3.53;;;;;;;10.03;44.32;98984.91;6038004;23;20153;-88
2022/12/14 10:56:37;;;;;;;6.07;3.50;;;;;;;10.62;44.70;98983.47;6039549;23;20217;-88
2022/12/14 10:59:28;;;;;;;13.53;3.80;;;;;;;11.04;43.44;98986.34;6014302;23;20164;-88
2022/12/14 11:02:02;;;;;;;7.90;3.30;;;;;;;10.47;43.59;98986.03;6039248;23;20229;-88
2022/12/14 11:04:32;;;;;;;5.73;3.17;;;;;;;10.45;44.96;98977.38;6038940;23;20190;-88
2022/12/14 11:07:03;;;;;;;6.33;3.73;;;;;;;10.96;44.80;98972.81;6039956;23;20161;-88
2022/12/14 11:09:30;;;;;;;9.17;4.07;;;;;;;11.19;43.25;98979.38;6039356;23;20146;-88
2022/12/14 11:12:01;;;;;;;5.30;2.40;;;;;;;10.92;44.11;98968.69;6014427;23;20257;-89
2022/12/14 11:14:27;;;;;;;8.47;3.80;;;;;;;11.13;44.30;98964.84;6039204;23;20569;-88
2022/12/14 11:16:52;;;;;;;6.53;3.03;;;;;;;11.31;43.51;98969.00;6038790;23;20161;-88
2022/12/14 11:19:23;;;;;;;10.37;3.07;;;;;;;11.29;43.40;98965.66;6039094;23;20713;-88
2022/12/14 11:22:02;;;;;;;8.10;3.30;;;;;;;11.56;43.17;98971.03;6039509;23;20505;-89
2022/12/14 11:24:28;;;;;;;5.70;3.57;;;;;;;11.23;43.03;98967.75;6039200;23;20142;-89
2022/12/14 11:26:59;;;;;;;7.37;3.97;;;;;;;11.19;43.09;98955.78;6037877;23;20158;-88
2022/12/14 11:29:46;;;;;;;7.67;3.67;;;;;;;11.02;44.21;98952.34;6037869;23;20146;-88
2022/12/14 11:32:24;;;;;;;9.43;2.90;;;;;;;10.81;43.80;98945.69;6014308;23;20240;-88
2022/12/14 11:34:56;;;;;;;9.07;3.80;;;;;;;10.71;44.11;98941.03;6039312;23;20225;-88
2022/12/14 11:37:30;;;;;;;6.20;2.97;;;;;;;10.59;44.70;98931.22;6039338;23;20155;-88
2022/12/14 11:39:59;;;;;;;5.40;2.90;;;;;;;10.70;44.22;98934.94;6039302;23;20179;-88
2022/12/14 11:42:25;;;;;;;7.23;3.33;;;;;;;10.86;44.77;98933.16;6038936;23;20611;-88
2022/12/14 11:44:51;;;;;;;6.53;3.50;;;;;;;10.87;43.66;98923.53;6038800;23;20233;-88
2022/12/14 11:47:22;;;;;;;6.23;2.93;;;;;;;11.20;43.96;98925.97;6040384;23;20174;-88
2022/12/14 11:49:56;;;;;;;7.33;3.10;;;;;;;11.65;43.64;98920.63;6041120;23;20223;-89
2022/12/14 11:52:38;;;;;;;9.67;3.30;;;;;;;11.91;43.86;98909.41;6040870;23;20172;-88
2022/12/14 11:55:16;;;;;;;7.53;3.43;;;;;;;11.71;43.18;98913.22;6041046;23;20256;-88
2022/12/14 11:57:56;;;;;;;8.20;3.37;;;;;;;11.83;42.67;98902.94;6015772;23;20461;-88
2022/12/14 12:00:26;;;;;;;6.97;2.80;;;;;;;11.70;42.62;98903.69;6041366;23;20180;-88
2022/12/14 12:03:12;;;;;;;7.03;3.20;;;;;;;11.27;43.26;98906.31;6040926;23;20163;-89
2022/12/14 12:05:40;;;;;;;6.53;3.00;;;;;;;11.29;44.39;98907.94;6041059;23;20541;-89
2022/12/14 12:08:20;;;;;;;6.87;2.93;;;;;;;11.56;43.61;98908.03;6041032;23;20592;-88
2022/12/14 12:10:52;;;;;;;7.40;3.27;;;;;;;11.90;43.59;98909.47;6041122;23;20148;-89